createdAt,value
2018-02-07T00:00:08.401Z,0.20
2018-02-07T00:02:35.980Z,0.30
2018-02-07T00:05:03.510Z,0.40
2018-02-07T00:07:31.081Z,0.50
2018-02-07T00:09:58.680Z,0.50
2018-02-07T00:12:26.370Z,0.40
2018-02-07T00:14:54.716Z,0.30
2018-02-07T00:17:22.285Z,0.30
2018-02-07T00:19:49.853Z,0.20
2018-02-07T00:22:17.416Z,0.20
2018-02-07T00:24:45.762Z,0.10
2018-02-07T00:27:13.331Z,0.10
2018-02-07T00:29:40.898Z,0.00
2018-02-07T00:32:08.448Z,-0.10
2018-02-07T00:34:36.003Z,-0.10
2018-02-07T00:37:03.597Z,-0.10
2018-02-07T00:39:31.161Z,-0.10
2018-02-07T00:41:58.905Z,-0.10
2018-02-07T00:44:26.472Z,0.10
2018-02-07T00:46:54.122Z,0.00
2018-02-07T00:49:21.677Z,-0.10
2018-02-07T00:51:49.268Z,-0.20
2018-02-07T00:54:16.818Z,-0.20
2018-02-07T00:56:44.392Z,-0.20
2018-02-07T00:59:11.946Z,-0.10
2018-02-07T01:01:39.496Z,0.00
2018-02-07T01:04:07.086Z,0.10
2018-02-07T01:06:34.721Z,0.10
2018-02-07T01:09:02.429Z,0.10
2018-02-07T01:11:29.973Z,0.00
2018-02-07T01:13:58.330Z,0.40
2018-02-07T01:16:25.928Z,0.40
2018-02-07T01:18:54.254Z,0.30
2018-02-07T01:21:21.839Z,0.30
2018-02-07T01:23:49.557Z,0.30
2018-02-07T01:26:17.109Z,0.30
2018-02-07T01:28:44.797Z,0.20
2018-02-07T01:31:12.369Z,0.20
2018-02-07T01:33:39.921Z,0.20
2018-02-07T01:36:07.612Z,0.10
2018-02-07T01:38:35.176Z,0.10
2018-02-07T01:41:03.609Z,0.20
2018-02-07T01:43:31.155Z,0.20
2018-02-07T01:45:58.717Z,0.20
2018-02-07T01:48:26.278Z,0.10
2018-02-07T01:50:53.837Z,0.10
2018-02-07T01:53:21.813Z,0.10
2018-02-07T01:55:49.364Z,0.00
2018-02-07T01:58:16.918Z,0.10
2018-02-07T02:00:45.707Z,0.20
2018-02-07T02:03:14.021Z,0.30
2018-02-07T02:05:42.598Z,0.20
2018-02-07T02:08:10.152Z,0.30
2018-02-07T02:10:37.709Z,0.10
2018-02-07T02:13:05.268Z,0.20
2018-02-07T02:15:32.881Z,0.20
2018-02-07T02:18:00.438Z,0.30
2018-02-07T02:20:27.999Z,0.30
2018-02-07T02:22:55.599Z,0.20
2018-02-07T02:25:23.962Z,0.10
2018-02-07T02:27:51.514Z,0.10
2018-02-07T02:30:19.066Z,0.10
2018-02-07T02:32:46.685Z,0.10
2018-02-07T02:35:14.230Z,0.00
2018-02-07T02:37:42.551Z,0.00
2018-02-07T02:40:10.106Z,0.00
2018-02-07T02:42:37.885Z,0.10
2018-02-07T02:45:05.437Z,0.00
2018-02-07T02:47:33.005Z,0.00
2018-02-07T02:50:00.559Z,0.10
2018-02-07T02:52:28.261Z,0.00
2018-02-07T02:54:56.592Z,-0.20
2018-02-07T02:57:24.161Z,-0.20
2018-02-07T02:59:51.754Z,-0.10
2018-02-07T03:02:19.410Z,-0.20
2018-02-07T03:04:46.962Z,-0.10
2018-02-07T03:07:14.509Z,-0.20
2018-02-07T03:09:42.105Z,-0.20
2018-02-07T03:12:10.437Z,-0.30
2018-02-07T03:14:38.236Z,-0.30
2018-02-07T03:17:05.790Z,-0.30
2018-02-07T03:19:33.515Z,-0.30
2018-02-07T03:22:01.075Z,-0.40
2018-02-07T03:24:28.626Z,-0.20
2018-02-07T03:26:56.186Z,-0.10
2018-02-07T03:29:23.762Z,0.10
2018-02-07T03:31:51.321Z,0.00
2018-02-07T03:34:18.881Z,0.00
2018-02-07T03:36:46.424Z,0.00
2018-02-07T03:39:13.978Z,0.00
2018-02-07T03:41:42.309Z,0.00
2018-02-07T03:44:09.878Z,0.00
2018-02-07T03:46:37.501Z,0.00
2018-02-07T03:49:05.070Z,-0.10
2018-02-07T03:51:32.637Z,-0.10
2018-02-07T03:54:00.209Z,0.00
2018-02-07T03:56:27.862Z,-0.20
2018-02-07T03:58:55.420Z,-0.10
2018-02-07T04:01:23.132Z,-0.10
2018-02-07T04:03:50.736Z,-0.10
2018-02-07T04:06:18.329Z,-0.20
2018-02-07T04:08:45.937Z,-0.10
2018-02-07T04:11:14.259Z,-0.10
2018-02-07T04:13:41.848Z,-0.10
2018-02-07T04:16:09.564Z,-0.10
2018-02-07T04:18:37.185Z,-0.10
2018-02-07T04:21:04.757Z,0.00
2018-02-07T04:23:33.109Z,0.00
2018-02-07T04:26:00.661Z,0.00
2018-02-07T04:28:28.225Z,0.00
2018-02-07T04:30:55.795Z,0.00
2018-02-07T04:33:23.412Z,0.00
2018-02-07T04:35:50.984Z,-0.10
2018-02-07T04:38:18.554Z,-0.20
2018-02-07T04:40:46.126Z,-0.50
2018-02-07T04:43:13.709Z,-0.60
2018-02-07T04:45:41.300Z,-0.60
2018-02-07T04:48:09.623Z,-0.90
2018-02-07T04:50:37.174Z,-0.90
2018-02-07T04:53:04.754Z,-1.00
2018-02-07T04:55:32.305Z,-1.10
2018-02-07T04:57:59.945Z,-1.10
2018-02-07T05:00:27.545Z,-1.10
2018-02-07T05:02:55.212Z,-1.20
2018-02-07T05:05:22.778Z,-1.30
2018-02-07T05:07:50.358Z,-1.30
2018-02-07T05:10:18.701Z,-1.30
2018-02-07T05:12:46.276Z,-1.30
2018-02-07T05:15:13.820Z,-1.40
2018-02-07T05:17:41.384Z,-1.50
2018-02-07T05:20:09.789Z,-1.60
2018-02-07T05:22:38.111Z,-1.60
2018-02-07T05:25:05.669Z,-1.60
2018-02-07T05:27:33.242Z,-1.70
2018-02-07T05:30:00.824Z,-1.70
2018-02-07T05:32:28.393Z,-1.70
2018-02-07T05:34:55.952Z,-1.70
2018-02-07T05:37:23.513Z,-1.80
2018-02-07T05:39:51.066Z,-1.80
2018-02-07T05:42:18.754Z,-1.90
2018-02-07T05:44:46.337Z,-2.00
2018-02-07T05:47:13.922Z,-2.10
2018-02-07T05:49:41.494Z,-2.20
2018-02-07T05:52:09.068Z,-2.30
2018-02-07T05:54:36.638Z,-2.30
2018-02-07T05:57:04.237Z,-2.40
2018-02-07T05:59:32.717Z,-2.50
2018-02-07T06:02:01.037Z,-2.60
2018-02-07T06:04:28.807Z,-2.60
2018-02-07T06:06:56.361Z,-2.60
2018-02-07T06:09:23.924Z,-2.50
2018-02-07T06:11:51.486Z,-2.50
2018-02-07T06:14:19.178Z,-2.50
2018-02-07T06:16:46.777Z,-2.60
2018-02-07T06:19:14.308Z,-2.60
2018-02-07T06:21:42.356Z,-2.60
2018-02-07T06:24:10.192Z,-2.70
2018-02-07T06:26:37.772Z,-2.70
2018-02-07T06:29:05.332Z,-2.80
2018-02-07T06:31:32.893Z,-2.80
2018-02-07T06:34:00.453Z,-2.80
2018-02-07T06:36:28.216Z,-2.90
2018-02-07T06:38:55.779Z,-2.90
2018-02-07T06:41:23.322Z,-3.00
2018-02-07T06:43:50.879Z,-2.90
2018-02-07T06:46:18.457Z,-2.90
2018-02-07T06:48:46.038Z,-2.90
2018-02-07T06:51:13.596Z,-2.90
2018-02-07T06:53:41.161Z,-3.00
2018-02-07T06:56:08.728Z,-2.90
2018-02-07T06:58:36.317Z,-2.80
2018-02-07T07:01:04.658Z,-2.40
2018-02-07T07:03:32.252Z,-2.40
2018-02-07T07:06:00.605Z,-2.10
2018-02-07T07:08:28.182Z,-2.10
2018-02-07T07:10:55.739Z,-1.90
2018-02-07T07:13:23.285Z,-1.80
2018-02-07T07:15:51.651Z,-1.60
2018-02-07T07:18:19.221Z,-1.60
2018-02-07T07:20:46.807Z,-1.50
2018-02-07T07:23:14.370Z,-1.30
2018-02-07T07:25:42.728Z,-1.00
2018-02-07T07:28:10.300Z,-1.00
2018-02-07T07:30:38.186Z,-1.00
2018-02-07T07:33:07.345Z,-0.90
2018-02-07T07:35:34.900Z,-0.90
2018-02-07T07:38:02.543Z,-0.90
2018-02-07T07:40:30.112Z,-0.90
2018-02-07T07:42:57.686Z,-0.90
2018-02-07T07:45:25.247Z,-0.70
2018-02-07T07:47:52.830Z,-0.50
2018-02-07T07:50:20.401Z,-0.40
2018-02-07T07:52:47.973Z,-0.50
2018-02-07T07:55:16.383Z,-0.30
2018-02-07T07:57:43.945Z,-0.30
2018-02-07T08:00:11.508Z,-0.30
2018-02-07T08:02:39.097Z,-0.20
2018-02-07T08:05:06.674Z,-0.20
2018-02-07T08:07:34.229Z,-0.20
2018-02-07T08:10:01.866Z,-0.10
2018-02-07T08:12:29.429Z,0.00
2018-02-07T08:14:57.105Z,0.20
2018-02-07T08:17:24.675Z,0.20
2018-02-07T08:19:52.507Z,0.30
2018-02-07T08:22:20.048Z,0.30
2018-02-07T08:24:47.633Z,0.50
2018-02-07T08:27:15.196Z,0.50
2018-02-07T08:29:42.741Z,0.60
2018-02-07T08:32:10.302Z,0.50
2018-02-07T08:34:37.925Z,0.40
2018-02-07T08:37:06.242Z,0.50
2018-02-07T08:39:33.810Z,0.50
2018-02-07T08:42:01.425Z,0.50
2018-02-07T08:44:29.782Z,0.70
2018-02-07T08:46:57.387Z,0.70
2018-02-07T08:49:25.706Z,0.90
2018-02-07T08:51:53.303Z,0.80
2018-02-07T08:54:20.881Z,1.00
2018-02-07T08:56:49.216Z,1.10
2018-02-07T08:59:17.585Z,1.40
2018-02-07T09:01:45.274Z,1.40
2018-02-07T09:04:12.881Z,1.60
2018-02-07T09:06:41.484Z,1.80
2018-02-07T09:09:09.065Z,1.70
2018-02-07T09:11:36.645Z,1.70
2018-02-07T09:14:04.198Z,1.70
2018-02-07T09:16:31.785Z,1.70
2018-02-07T09:18:59.297Z,1.80
2018-02-07T09:21:26.882Z,1.70
2018-02-07T09:23:54.445Z,1.60
2018-02-07T09:26:22.005Z,1.60
2018-02-07T09:28:49.593Z,1.50
2018-02-07T09:31:17.910Z,1.60
2018-02-07T09:33:45.478Z,1.60
2018-02-07T09:36:13.083Z,1.70
2018-02-07T09:38:40.649Z,1.80
2018-02-07T09:41:09.013Z,1.80
2018-02-07T09:43:37.374Z,1.70
2018-02-07T09:46:04.954Z,1.70
2018-02-07T09:48:32.549Z,1.70
2018-02-07T09:51:00.887Z,1.90
2018-02-07T09:53:29.738Z,1.80
2018-02-07T09:55:57.359Z,2.20
2018-02-07T09:58:24.978Z,2.50
2018-02-07T10:00:52.585Z,2.60
2018-02-07T10:03:20.312Z,2.80
2018-02-07T10:05:48.030Z,2.90
2018-02-07T10:08:16.362Z,3.10
2018-02-07T10:10:43.980Z,3.10
2018-02-07T10:13:12.321Z,3.60
2018-02-07T10:15:39.873Z,3.60
2018-02-07T10:18:07.454Z,3.90
2018-02-07T10:20:35.012Z,4.60
2018-02-07T10:23:02.581Z,5.00
2018-02-07T10:25:30.141Z,5.20
2018-02-07T10:27:58.474Z,5.70
2018-02-07T10:30:26.018Z,5.70
2018-02-07T10:32:53.594Z,5.80
2018-02-07T10:35:21.181Z,6.00
2018-02-07T10:37:48.785Z,6.20
2018-02-07T10:40:17.419Z,6.30
2018-02-07T10:42:44.977Z,6.30
2018-02-07T10:45:12.558Z,6.40
2018-02-07T10:47:40.134Z,6.10
2018-02-07T10:50:07.705Z,5.50
2018-02-07T10:52:36.152Z,4.80
2018-02-07T10:55:03.740Z,4.70
2018-02-07T10:57:32.063Z,4.40
2018-02-07T10:59:59.686Z,4.40
2018-02-07T11:02:28.153Z,4.10
2018-02-07T11:04:55.720Z,4.10
2018-02-07T11:07:24.059Z,4.30
2018-02-07T11:09:51.659Z,4.30
2018-02-07T11:12:19.771Z,4.20
2018-02-07T11:14:47.464Z,4.10
2018-02-07T11:17:15.032Z,3.90
2018-02-07T11:19:42.600Z,3.60
2018-02-07T11:22:10.185Z,3.50
2018-02-07T11:24:37.783Z,3.80
2018-02-07T11:27:05.500Z,4.00
2018-02-07T11:29:34.054Z,4.30
2018-02-07T11:32:04.453Z,4.30
2018-02-07T11:34:32.205Z,4.00
2018-02-07T11:37:00.530Z,3.70
2018-02-07T11:39:28.150Z,3.70
2018-02-07T11:41:56.477Z,3.60
2018-02-07T11:44:24.172Z,3.60
2018-02-07T11:46:51.745Z,3.60
2018-02-07T11:49:20.159Z,3.70
2018-02-07T11:51:47.826Z,3.70
2018-02-07T11:54:15.422Z,3.80
2018-02-07T11:56:42.975Z,3.80
2018-02-07T11:59:10.560Z,3.60
2018-02-07T12:01:38.185Z,3.30
2018-02-07T12:04:05.761Z,3.20
2018-02-07T12:06:33.306Z,3.10
2018-02-07T12:09:00.880Z,3.10
2018-02-07T12:11:28.441Z,2.70
2018-02-07T12:13:56.611Z,2.60
2018-02-07T12:16:25.341Z,2.80
2018-02-07T12:18:52.929Z,2.70
2018-02-07T12:21:21.017Z,2.80
2018-02-07T12:23:48.612Z,3.00
2018-02-07T12:26:16.174Z,3.20
2018-02-07T12:28:43.816Z,3.40
2018-02-07T12:31:11.414Z,3.70
2018-02-07T12:33:38.981Z,3.70
2018-02-07T12:36:06.725Z,3.50
2018-02-07T12:38:34.305Z,3.50
2018-02-07T12:41:01.881Z,3.50
2018-02-07T12:43:30.205Z,3.30
2018-02-07T12:45:57.802Z,3.30
2018-02-07T12:48:25.377Z,3.20
2018-02-07T12:50:53.705Z,3.20
2018-02-07T12:53:21.377Z,3.20
2018-02-07T12:55:48.920Z,3.60
2018-02-07T12:58:16.581Z,3.70
2018-02-07T13:00:44.145Z,3.80
2018-02-07T13:03:11.748Z,3.90
2018-02-07T13:05:39.349Z,3.90
2018-02-07T13:08:06.938Z,3.80
2018-02-07T13:10:34.575Z,3.60
2018-02-07T13:13:02.149Z,3.50
2018-02-07T13:15:29.762Z,3.50
2018-02-07T13:17:57.414Z,3.60
2018-02-07T13:20:25.016Z,3.70
2018-02-07T13:22:53.382Z,3.70
2018-02-07T13:25:20.953Z,3.60
2018-02-07T13:27:49.293Z,3.80
2018-02-07T13:30:21.532Z,3.70
2018-02-07T13:32:49.945Z,3.70
2018-02-07T13:35:17.606Z,3.70
2018-02-07T13:37:45.196Z,3.60
2018-02-07T13:40:12.765Z,3.50
2018-02-07T13:42:41.143Z,3.60
2018-02-07T13:45:08.706Z,3.60
2018-02-07T13:47:37.033Z,3.60
2018-02-07T13:50:04.635Z,3.60
2018-02-07T13:52:32.305Z,3.50
2018-02-07T13:55:00.732Z,3.40
2018-02-07T13:57:29.164Z,3.30
2018-02-07T13:59:57.809Z,3.30
2018-02-07T14:02:25.359Z,3.20
2018-02-07T14:04:52.917Z,3.10
2018-02-07T14:07:20.481Z,3.10
2018-02-07T14:09:48.063Z,3.10
2018-02-07T14:12:15.636Z,3.10
2018-02-07T14:14:43.379Z,3.00
2018-02-07T14:17:10.970Z,3.10
2018-02-07T14:19:38.541Z,3.10
2018-02-07T14:22:06.095Z,3.30
2018-02-07T14:24:34.524Z,3.20
2018-02-07T14:27:02.097Z,3.20
2018-02-07T14:29:29.694Z,3.20
2018-02-07T14:31:57.261Z,3.20
2018-02-07T14:34:24.937Z,3.00
2018-02-07T14:36:52.619Z,3.00
2018-02-07T14:39:21.093Z,2.90
2018-02-07T14:41:50.535Z,2.90
2018-02-07T14:44:18.289Z,2.80
2018-02-07T14:46:45.861Z,2.80
2018-02-07T14:49:14.537Z,2.90
2018-02-07T14:51:42.691Z,2.80
2018-02-07T14:54:11.019Z,2.60
2018-02-07T14:56:38.565Z,2.60
2018-02-07T14:59:06.126Z,2.50
2018-02-07T15:01:33.684Z,2.40
2018-02-07T15:04:01.229Z,2.50
2018-02-07T15:06:28.823Z,2.60
2018-02-07T15:08:56.578Z,2.60
2018-02-07T15:11:24.189Z,2.60
2018-02-07T15:13:51.734Z,2.60
2018-02-07T15:16:19.278Z,2.60
2018-02-07T15:18:46.862Z,2.60
2018-02-07T15:21:14.410Z,2.60
2018-02-07T15:23:41.997Z,2.50
2018-02-07T15:26:09.582Z,2.50
2018-02-07T15:28:37.147Z,2.50
2018-02-07T15:31:05.497Z,2.50
2018-02-07T15:33:33.082Z,2.40
2018-02-07T15:36:01.429Z,2.30
2018-02-07T15:38:29.011Z,2.30
2018-02-07T15:40:57.341Z,2.20
2018-02-07T15:43:24.900Z,2.20
2018-02-07T15:45:52.479Z,2.10
2018-02-07T15:48:20.078Z,2.00
2018-02-07T15:50:48.550Z,2.00
2018-02-07T15:53:16.107Z,2.00
2018-02-07T15:55:44.439Z,1.90
2018-02-07T15:58:12.860Z,1.90
2018-02-07T16:00:41.112Z,1.90
2018-02-07T16:03:08.696Z,1.80
2018-02-07T16:05:36.266Z,1.70
2018-02-07T16:08:04.738Z,1.60
2018-02-07T16:10:32.317Z,1.50
2018-02-07T16:13:00.706Z,1.10
2018-02-07T16:15:28.269Z,1.10
2018-02-07T16:17:56.793Z,1.10
2018-02-07T16:20:24.377Z,1.10
2018-02-07T16:22:51.955Z,1.10
2018-02-07T16:25:19.510Z,1.00
2018-02-07T16:27:47.142Z,0.90
2018-02-07T16:30:14.699Z,0.90
2018-02-07T16:32:42.281Z,0.70
2018-02-07T16:35:09.894Z,0.60
2018-02-07T16:37:38.217Z,0.40
2018-02-07T16:40:05.789Z,0.40
2018-02-07T16:42:33.368Z,0.20
2018-02-07T16:45:00.937Z,0.00
2018-02-07T16:47:28.541Z,-0.10
2018-02-07T16:49:56.116Z,-0.10
2018-02-07T16:52:23.740Z,-0.20
2018-02-07T16:54:52.052Z,-0.30
2018-02-07T16:57:19.611Z,-0.30
2018-02-07T16:59:47.317Z,-0.20
2018-02-07T17:02:14.905Z,-0.30
2018-02-07T17:04:43.246Z,-0.30
2018-02-07T17:07:10.833Z,-0.40
2018-02-07T17:09:38.466Z,-0.30
2018-02-07T17:12:06.127Z,-0.30
2018-02-07T17:14:36.195Z,-0.40
2018-02-07T17:17:06.125Z,-0.50
2018-02-07T17:19:33.967Z,-0.50
2018-02-07T17:22:02.929Z,-0.60
2018-02-07T17:24:31.688Z,-0.80
2018-02-07T17:27:10.543Z,-0.80
2018-02-07T17:29:39.845Z,-0.90
2018-02-07T17:32:07.436Z,-1.00
2018-02-07T17:34:35.126Z,-1.00
2018-02-07T17:37:02.714Z,-1.00
2018-02-07T17:39:30.309Z,-1.10
2018-02-07T17:41:58.005Z,-1.10
2018-02-07T17:44:25.710Z,-1.20
2018-02-07T17:46:53.258Z,-1.20
2018-02-07T17:49:22.143Z,-1.20
2018-02-07T17:51:50.477Z,-1.10
2018-02-07T17:54:18.055Z,-1.10
2018-02-07T17:56:45.712Z,-1.20
2018-02-07T17:59:13.319Z,-1.30
2018-02-07T18:01:41.667Z,-1.40
2018-02-07T18:04:09.227Z,-1.50
2018-02-07T18:06:36.784Z,-1.50
2018-02-07T18:09:04.341Z,-1.50
2018-02-07T18:11:32.062Z,-1.60
2018-02-07T18:13:59.668Z,-1.60
2018-02-07T18:16:27.234Z,-1.70
2018-02-07T18:18:55.581Z,-1.80
2018-02-07T18:21:23.154Z,-1.80
2018-02-07T18:23:50.766Z,-1.80
2018-02-07T18:26:19.118Z,-1.90
2018-02-07T18:28:46.697Z,-2.00
2018-02-07T18:31:15.040Z,-2.00
2018-02-07T18:33:42.657Z,-2.00
2018-02-07T18:36:10.243Z,-2.10
2018-02-07T18:38:37.802Z,-2.10
2018-02-07T18:41:05.378Z,-2.10
2018-02-07T18:43:32.984Z,-2.20
2018-02-07T18:46:00.664Z,-2.20
2018-02-07T18:48:28.418Z,-2.20
2018-02-07T18:50:55.994Z,-2.20
2018-02-07T18:53:23.577Z,-2.20
2018-02-07T18:55:51.176Z,-2.10
2018-02-07T18:58:19.512Z,-1.90
2018-02-07T19:00:47.101Z,-1.90
2018-02-07T19:03:15.435Z,-1.80
2018-02-07T19:05:43.021Z,-1.80
2018-02-07T19:08:10.609Z,-1.60
2018-02-07T19:10:38.186Z,-1.70
2018-02-07T19:13:06.564Z,-1.80
2018-02-07T19:15:45.454Z,-1.80
2018-02-07T19:18:13.045Z,-1.90
2018-02-07T19:20:41.633Z,-2.10
2018-02-07T19:23:09.980Z,-2.20
2018-02-07T19:25:37.653Z,-2.20
2018-02-07T19:28:05.218Z,-2.20
2018-02-07T19:30:32.782Z,-2.20
2018-02-07T19:33:00.353Z,-2.20
2018-02-07T19:35:28.702Z,-2.30
2018-02-07T19:37:56.339Z,-2.30
2018-02-07T19:40:24.057Z,-2.30
2018-02-07T19:42:51.738Z,-2.30
2018-02-07T19:45:19.357Z,-2.40
2018-02-07T19:47:46.957Z,-2.50
2018-02-07T19:50:15.297Z,-2.60
2018-02-07T19:52:43.042Z,-2.60
2018-02-07T19:55:10.673Z,-2.60
2018-02-07T19:57:38.271Z,-2.60
2018-02-07T20:00:06.954Z,-2.70
2018-02-07T20:02:34.551Z,-2.70
2018-02-07T20:05:02.160Z,-2.70
2018-02-07T20:07:29.785Z,-2.80
2018-02-07T20:09:59.320Z,-2.80
2018-02-07T20:12:28.053Z,-2.90
2018-02-07T20:15:00.969Z,-2.90
2018-02-07T20:17:29.454Z,-2.90
2018-02-07T20:19:58.037Z,-2.90
2018-02-07T20:22:26.670Z,-2.90
2018-02-07T20:24:54.312Z,-2.90
2018-02-07T20:27:22.401Z,-2.90
2018-02-07T20:29:50.055Z,-2.90
2018-02-07T20:32:17.796Z,-3.00
2018-02-07T20:34:45.536Z,-2.90
2018-02-07T20:37:13.203Z,-3.00
2018-02-07T20:39:40.882Z,-3.10
2018-02-07T20:42:08.663Z,-3.10
2018-02-07T20:44:36.263Z,-3.10
2018-02-07T20:47:03.995Z,-3.10
2018-02-07T20:49:31.790Z,-3.20
2018-02-07T20:51:59.371Z,-3.30
2018-02-07T20:54:26.937Z,-3.40
2018-02-07T20:56:54.568Z,-3.40
2018-02-07T20:59:22.178Z,-3.40
2018-02-07T21:01:50.699Z,-3.60
2018-02-07T21:04:19.147Z,-3.50
2018-02-07T21:06:47.478Z,-3.50
2018-02-07T21:09:15.057Z,-3.50
2018-02-07T21:11:42.810Z,-3.60
2018-02-07T21:14:11.094Z,-3.60
2018-02-07T21:16:39.628Z,-3.60
2018-02-07T21:19:07.311Z,-3.60
2018-02-07T21:21:34.897Z,-3.60
2018-02-07T21:24:02.491Z,-3.70
2018-02-07T21:26:30.843Z,-3.70
2018-02-07T21:28:58.701Z,-3.70
2018-02-07T21:31:26.443Z,-3.70
2018-02-07T21:33:54.166Z,-3.80
2018-02-07T21:36:22.509Z,-3.80
2018-02-07T21:38:50.277Z,-3.90
2018-02-07T21:41:17.984Z,-3.80
2018-02-07T21:43:46.639Z,-3.90
2018-02-07T21:46:14.419Z,-3.90
2018-02-07T21:48:42.863Z,-3.90
2018-02-07T21:51:10.538Z,-3.90
2018-02-07T21:53:39.037Z,-4.00
2018-02-07T21:56:07.424Z,-4.00
2018-02-07T21:58:35.123Z,-4.00
2018-02-07T22:01:02.779Z,-4.00
2018-02-07T22:03:31.235Z,-4.00
2018-02-07T22:05:59.587Z,-4.00
2018-02-07T22:08:27.150Z,-4.00
2018-02-07T22:10:54.748Z,-4.00
2018-02-07T22:13:23.153Z,-4.10
2018-02-07T22:15:51.634Z,-4.10
2018-02-07T22:18:19.432Z,-4.10
2018-02-07T22:20:47.008Z,-4.10
2018-02-07T22:23:14.767Z,-4.10
2018-02-07T22:25:42.917Z,-4.20
2018-02-07T22:28:10.529Z,-4.10
2018-02-07T22:30:39.090Z,-4.10
2018-02-07T22:33:06.689Z,-4.20
2018-02-07T22:35:34.245Z,-4.20
2018-02-07T22:38:01.978Z,-4.20
2018-02-07T22:40:29.553Z,-4.30
2018-02-07T22:42:58.068Z,-4.30
2018-02-07T22:45:25.628Z,-4.40
2018-02-07T22:47:53.280Z,-4.40
2018-02-07T22:50:20.919Z,-4.40
2018-02-07T22:52:48.595Z,-4.50
2018-02-07T22:55:17.062Z,-4.50
2018-02-07T22:57:45.454Z,-4.50
2018-02-07T23:00:14.797Z,-4.50
2018-02-07T23:02:42.501Z,-4.50
2018-02-07T23:05:10.272Z,-4.50
2018-02-07T23:07:38.650Z,-4.50
2018-02-07T23:10:06.341Z,-4.50
2018-02-07T23:12:33.920Z,-4.50
2018-02-07T23:15:01.550Z,-4.50
2018-02-07T23:17:29.907Z,-4.60
2018-02-07T23:19:57.483Z,-4.70
2018-02-07T23:22:25.809Z,-4.70
2018-02-07T23:24:53.565Z,-4.80
2018-02-07T23:27:21.221Z,-4.90
2018-02-07T23:29:48.803Z,-4.90
2018-02-07T23:32:16.449Z,-4.90
2018-02-07T23:34:44.526Z,-4.90
2018-02-07T23:37:12.134Z,-4.90
2018-02-07T23:39:39.944Z,-4.90
2018-02-07T23:42:07.517Z,-4.90
2018-02-07T23:44:35.066Z,-5.00
2018-02-07T23:47:02.626Z,-5.00
2018-02-07T23:49:30.205Z,-5.00
2018-02-07T23:51:57.788Z,-5.00
2018-02-07T23:54:25.455Z,-5.00
2018-02-07T23:56:53.905Z,-5.00
2018-02-07T23:59:21.491Z,-5.00
